createdAt,value
2018-03-27T00:00:53.470Z,21.80
2018-03-27T00:03:20.895Z,20.00
2018-03-27T00:05:48.302Z,18.50
2018-03-27T00:08:15.722Z,17.97
2018-03-27T00:10:43.134Z,21.33
2018-03-27T00:13:10.554Z,20.67
2018-03-27T00:15:37.968Z,20.27
2018-03-27T00:18:05.395Z,20.80
2018-03-27T00:20:32.802Z,17.93
2018-03-27T00:23:00.235Z,21.07
2018-03-27T00:25:27.654Z,20.33
2018-03-27T00:28:06.858Z,21.30
2018-03-27T00:30:45.885Z,23.00
2018-03-27T00:33:25.237Z,18.87
2018-03-27T00:36:04.218Z,24.17
2018-03-27T00:38:43.246Z,23.13
2018-03-27T00:41:22.353Z,26.27
2018-03-27T00:43:49.810Z,21.77
2018-03-27T00:46:17.242Z,19.97
2018-03-27T00:48:44.645Z,20.83
2018-03-27T00:51:12.073Z,22.57
2018-03-27T00:53:39.483Z,25.10
2018-03-27T00:56:06.908Z,32.20
2018-03-27T00:58:34.333Z,27.33
2018-03-27T01:01:01.741Z,23.10
2018-03-27T01:03:29.462Z,24.00
2018-03-27T01:05:56.869Z,24.73
2018-03-27T01:08:24.285Z,22.90
2018-03-27T01:10:51.698Z,25.43
2018-03-27T01:13:19.107Z,24.90
2018-03-27T01:15:46.537Z,24.60
2018-03-27T01:18:13.950Z,24.50
2018-03-27T01:20:41.385Z,27.33
2018-03-27T01:23:08.778Z,27.60
2018-03-27T01:25:36.187Z,26.40
2018-03-27T01:28:03.618Z,29.40
2018-03-27T01:30:31.042Z,29.07
2018-03-27T01:32:58.463Z,30.07
2018-03-27T01:35:26.162Z,21.97
2018-03-27T01:37:53.576Z,24.73
2018-03-27T01:40:20.977Z,30.50
2018-03-27T01:42:48.398Z,28.17
2018-03-27T01:45:15.936Z,24.13
2018-03-27T01:47:43.333Z,29.00
2018-03-27T01:50:10.750Z,29.90
2018-03-27T01:52:38.178Z,24.90
2018-03-27T01:55:05.587Z,23.03
2018-03-27T01:57:33.006Z,23.00
2018-03-27T02:00:00.414Z,24.00
2018-03-27T02:02:27.839Z,25.43
2018-03-27T02:04:55.273Z,29.07
2018-03-27T02:07:22.756Z,27.73
2018-03-27T02:09:50.242Z,31.17
2018-03-27T02:12:23.391Z,29.47
2018-03-27T02:14:56.539Z,31.13
2018-03-27T02:17:29.591Z,32.40
2018-03-27T02:20:02.586Z,37.50
2018-03-27T02:22:31.822Z,33.37
2018-03-27T02:24:59.234Z,32.80
2018-03-27T02:27:26.680Z,32.13
2018-03-27T02:29:54.117Z,28.03
2018-03-27T02:32:21.541Z,32.00
2018-03-27T02:34:49.006Z,26.77
2018-03-27T02:37:16.415Z,34.10
2018-03-27T02:39:43.886Z,29.37
2018-03-27T02:42:11.318Z,27.97
2018-03-27T02:44:38.738Z,27.70
2018-03-27T02:47:06.142Z,27.93
2018-03-27T02:49:33.573Z,31.27
2018-03-27T02:52:00.985Z,31.17
2018-03-27T02:54:28.471Z,31.47
2018-03-27T02:56:55.886Z,29.10
2018-03-27T02:59:23.337Z,25.93
2018-03-27T03:01:50.764Z,27.43
2018-03-27T03:04:18.205Z,24.13
2018-03-27T03:06:45.617Z,27.57
2018-03-27T03:09:13.053Z,28.67
2018-03-27T03:11:40.475Z,26.53
2018-03-27T03:14:07.893Z,34.33
2018-03-27T03:16:35.326Z,36.50
2018-03-27T03:19:02.789Z,28.77
2018-03-27T03:21:30.157Z,26.40
2018-03-27T03:23:57.577Z,27.30
2018-03-27T03:26:25.001Z,27.57
2018-03-27T03:28:52.405Z,31.37
2018-03-27T03:31:19.828Z,27.47
2018-03-27T03:33:47.232Z,29.57
2018-03-27T03:36:14.661Z,32.87
2018-03-27T03:38:42.075Z,30.23
2018-03-27T03:41:09.489Z,35.90
2018-03-27T03:43:36.907Z,34.20
2018-03-27T03:46:04.312Z,28.73
2018-03-27T03:48:31.742Z,27.63
2018-03-27T03:50:59.141Z,32.90
2018-03-27T03:53:26.570Z,29.27
2018-03-27T03:55:54.015Z,41.53
2018-03-27T03:58:21.477Z,44.10
2018-03-27T04:00:48.887Z,35.53
2018-03-27T04:03:16.310Z,40.23
2018-03-27T04:05:43.723Z,48.20
2018-03-27T04:08:11.141Z,39.83
2018-03-27T04:10:38.548Z,49.57
2018-03-27T04:13:05.973Z,41.20
2018-03-27T04:15:33.385Z,43.70
2018-03-27T04:18:00.806Z,46.47
2018-03-27T04:20:28.222Z,32.80
2018-03-27T04:22:55.642Z,34.17
2018-03-27T04:25:23.064Z,32.97
2018-03-27T04:27:50.482Z,31.17
2018-03-27T04:30:17.921Z,32.40
2018-03-27T04:32:45.325Z,30.23
2018-03-27T04:35:12.770Z,38.57
2018-03-27T04:37:40.193Z,46.00
2018-03-27T04:40:07.642Z,46.67
2018-03-27T04:42:35.050Z,41.17
2018-03-27T04:45:02.475Z,42.70
2018-03-27T04:47:29.894Z,39.87
2018-03-27T04:49:57.303Z,39.40
2018-03-27T04:52:24.749Z,40.47
2018-03-27T04:54:52.146Z,42.10
2018-03-27T04:57:19.566Z,34.90
2018-03-27T04:59:46.972Z,29.97
2018-03-27T05:02:14.399Z,27.90
2018-03-27T05:04:41.810Z,33.13
2018-03-27T05:07:09.236Z,31.47
2018-03-27T05:09:36.655Z,37.87
2018-03-27T05:12:04.148Z,41.57
2018-03-27T05:14:31.526Z,43.10
2018-03-27T05:16:58.962Z,43.10
2018-03-27T05:19:26.360Z,48.40
2018-03-27T05:21:53.785Z,45.30
2018-03-27T05:24:21.204Z,37.67
2018-03-27T05:26:48.629Z,37.23
2018-03-27T05:29:16.041Z,36.47
2018-03-27T05:31:43.474Z,41.20
2018-03-27T05:34:10.898Z,44.40
2018-03-27T05:36:38.326Z,47.43
2018-03-27T05:39:06.642Z,43.43
2018-03-27T05:41:34.054Z,37.43
2018-03-27T05:44:01.477Z,30.80
2018-03-27T05:46:28.914Z,34.53
2018-03-27T05:48:56.330Z,43.40
2018-03-27T05:51:23.754Z,43.93
2018-03-27T05:53:51.181Z,39.33
2018-03-27T05:56:18.590Z,43.27
2018-03-27T05:58:46.014Z,49.07
2018-03-27T06:01:13.429Z,41.50
2018-03-27T06:03:40.837Z,41.07
2018-03-27T06:06:08.261Z,36.73
2018-03-27T06:08:35.667Z,45.30
2018-03-27T06:11:03.099Z,39.87
2018-03-27T06:13:30.518Z,40.17
2018-03-27T06:15:57.937Z,34.50
2018-03-27T06:18:25.363Z,34.70
2018-03-27T06:20:52.780Z,34.03
2018-03-27T06:23:20.181Z,33.80
2018-03-27T06:25:47.600Z,30.80
2018-03-27T06:28:15.006Z,31.03
2018-03-27T06:30:42.422Z,32.70
2018-03-27T06:33:10.021Z,34.47
2018-03-27T06:35:37.421Z,32.83
2018-03-27T06:38:04.829Z,33.90
2018-03-27T06:40:32.257Z,31.20
2018-03-27T06:42:59.673Z,31.90
2018-03-27T06:45:27.114Z,34.00
2018-03-27T06:47:54.537Z,33.27
2018-03-27T06:50:22.037Z,36.93
2018-03-27T06:52:49.523Z,40.63
2018-03-27T06:55:17.007Z,36.03
2018-03-27T06:57:44.530Z,40.83
2018-03-27T07:00:11.957Z,36.60
2018-03-27T07:02:40.318Z,31.13
2018-03-27T07:05:07.731Z,33.90
2018-03-27T07:07:35.807Z,28.50
2018-03-27T07:10:04.284Z,34.80
2018-03-27T07:12:34.850Z,37.50
2018-03-27T07:15:02.330Z,31.97
2018-03-27T07:17:29.770Z,33.07
2018-03-27T07:19:57.214Z,27.30
2018-03-27T07:22:24.712Z,34.63
2018-03-27T07:24:52.590Z,31.77
2018-03-27T07:27:20.007Z,31.50
2018-03-27T07:29:47.434Z,41.60
2018-03-27T07:32:14.926Z,39.83
2018-03-27T07:34:42.349Z,39.30
2018-03-27T07:37:09.781Z,48.17
2018-03-27T07:39:37.193Z,42.87
2018-03-27T07:42:04.595Z,49.20
2018-03-27T07:44:32.027Z,36.07
2018-03-27T07:46:59.481Z,41.60
2018-03-27T07:49:26.907Z,34.77
2018-03-27T07:51:54.331Z,36.70
2018-03-27T07:54:21.748Z,38.50
2018-03-27T07:56:49.205Z,40.87
2018-03-27T07:59:16.621Z,31.70
2018-03-27T08:01:44.033Z,39.90
2018-03-27T08:04:11.453Z,31.20
2018-03-27T08:06:38.862Z,31.97
2018-03-27T08:09:06.299Z,32.00
2018-03-27T08:11:33.715Z,30.60
2018-03-27T08:14:01.205Z,32.47
2018-03-27T08:16:28.610Z,31.47
2018-03-27T08:18:56.021Z,29.47
2018-03-27T08:21:23.453Z,34.23
2018-03-27T08:23:50.862Z,35.33
2018-03-27T08:26:18.284Z,35.50
2018-03-27T08:28:45.710Z,38.63
2018-03-27T08:31:13.125Z,33.97
2018-03-27T08:33:40.549Z,38.70
2018-03-27T08:36:07.986Z,36.87
2018-03-27T08:38:35.414Z,38.73
2018-03-27T08:41:02.830Z,38.47
2018-03-27T08:43:30.262Z,48.53
2018-03-27T08:45:57.693Z,42.07
2018-03-27T08:48:25.157Z,45.47
2018-03-27T08:50:52.589Z,45.30
2018-03-27T08:53:20.068Z,43.07
2018-03-27T08:55:47.512Z,45.07
2018-03-27T08:58:15.003Z,47.27
2018-03-27T09:00:42.470Z,48.63
2018-03-27T09:03:09.850Z,50.70
2018-03-27T09:05:37.281Z,47.90
2018-03-27T09:08:04.690Z,54.23
2018-03-27T09:10:32.113Z,52.93
2018-03-27T09:12:59.527Z,51.10
2018-03-27T09:15:26.961Z,49.03
2018-03-27T09:17:54.387Z,54.93
2018-03-27T09:20:21.814Z,58.03
2018-03-27T09:22:49.242Z,55.23
2018-03-27T09:25:16.649Z,57.40
2018-03-27T09:27:44.107Z,61.83
2018-03-27T09:30:11.521Z,63.57
2018-03-27T09:32:38.934Z,60.60
2018-03-27T09:35:07.000Z,67.13
2018-03-27T09:37:34.454Z,66.20
2018-03-27T09:40:01.897Z,68.90
2018-03-27T09:42:29.311Z,70.93
2018-03-27T09:44:57.607Z,69.87
2018-03-27T09:47:25.079Z,69.07
2018-03-27T09:49:52.516Z,70.93
2018-03-27T09:52:19.972Z,67.13
2018-03-27T09:54:47.410Z,75.43
2018-03-27T09:57:14.819Z,78.13
2018-03-27T09:59:42.296Z,64.70
2018-03-27T10:02:09.715Z,92.20
2018-03-27T10:04:37.145Z,80.07
2018-03-27T10:07:05.362Z,85.33
2018-03-27T10:09:32.836Z,77.60
2018-03-27T10:12:00.249Z,84.70
2018-03-27T10:14:27.678Z,74.10
2018-03-27T10:16:55.138Z,79.10
2018-03-27T10:19:22.596Z,75.77
2018-03-27T10:21:50.041Z,81.57
2018-03-27T10:24:17.485Z,81.47
2018-03-27T10:26:44.955Z,92.47
2018-03-27T10:29:12.508Z,83.00
2018-03-27T10:31:39.933Z,95.43
2018-03-27T10:34:07.373Z,94.97
2018-03-27T10:36:34.782Z,91.20
2018-03-27T10:39:02.216Z,90.63
2018-03-27T10:41:29.629Z,93.00
2018-03-27T10:43:57.430Z,100.93
2018-03-27T10:46:24.853Z,100.50
2018-03-27T10:48:52.273Z,89.67
2018-03-27T10:51:19.698Z,89.83
2018-03-27T10:53:47.140Z,85.90
2018-03-27T10:56:14.572Z,92.10
2018-03-27T10:58:41.989Z,96.07
2018-03-27T11:01:09.430Z,87.27
2018-03-27T11:03:36.855Z,97.67
2018-03-27T11:06:04.281Z,96.53
2018-03-27T11:08:31.690Z,93.37
2018-03-27T11:10:59.440Z,88.53
2018-03-27T11:13:26.890Z,90.00
2018-03-27T11:15:54.338Z,91.90
2018-03-27T11:18:21.865Z,94.53
2018-03-27T11:20:49.289Z,92.87
2018-03-27T11:23:16.713Z,72.87
2018-03-27T11:25:44.133Z,69.17
2018-03-27T11:28:11.566Z,83.40
2018-03-27T11:30:38.987Z,76.00
2018-03-27T11:33:06.407Z,81.07
2018-03-27T11:35:33.825Z,77.13
2018-03-27T11:38:06.792Z,79.73
2018-03-27T11:40:34.258Z,79.30
2018-03-27T11:43:01.678Z,81.17
2018-03-27T11:45:29.128Z,51.83
2018-03-27T11:47:56.583Z,59.60
2018-03-27T11:50:24.178Z,61.27
2018-03-27T11:52:51.590Z,52.30
2018-03-27T11:55:19.006Z,52.83
2018-03-27T11:57:46.442Z,56.53
2018-03-27T12:00:13.855Z,63.60
2018-03-27T12:02:41.280Z,67.67
2018-03-27T12:05:08.695Z,62.17
2018-03-27T12:07:36.126Z,47.00
2018-03-27T12:10:03.538Z,70.23
2018-03-27T12:12:30.954Z,72.33
2018-03-27T12:14:58.382Z,61.90
2018-03-27T12:17:25.791Z,61.00
2018-03-27T12:19:53.203Z,63.90
2018-03-27T12:22:20.630Z,63.77
2018-03-27T12:24:48.044Z,62.53
2018-03-27T12:27:15.453Z,55.57
2018-03-27T12:29:42.878Z,47.87
2018-03-27T12:32:10.293Z,48.03
2018-03-27T12:34:37.712Z,47.30
2018-03-27T12:37:05.116Z,42.70
2018-03-27T12:39:32.549Z,52.57
2018-03-27T12:41:59.972Z,39.30
2018-03-27T12:44:27.452Z,28.63
2018-03-27T12:46:54.886Z,31.53
2018-03-27T12:49:22.366Z,30.80
2018-03-27T12:51:49.808Z,32.47
2018-03-27T12:54:17.215Z,33.43
2018-03-27T12:56:44.637Z,33.87
2018-03-27T12:59:12.062Z,33.80
2018-03-27T13:01:39.469Z,33.83
2018-03-27T13:04:06.890Z,33.50
2018-03-27T13:06:34.294Z,28.23
2018-03-27T13:09:01.719Z,34.47
2018-03-27T13:11:29.129Z,28.83
2018-03-27T13:13:56.544Z,30.70
2018-03-27T13:16:23.972Z,26.10
2018-03-27T13:18:51.382Z,32.17
2018-03-27T13:21:18.797Z,28.90
2018-03-27T13:23:46.210Z,27.63
2018-03-27T13:26:13.641Z,29.07
2018-03-27T13:28:41.046Z,27.67
2018-03-27T13:31:08.761Z,30.70
2018-03-27T13:33:36.165Z,24.87
2018-03-27T13:36:03.575Z,26.23
2018-03-27T13:38:30.994Z,25.23
2018-03-27T13:40:58.430Z,31.10
2018-03-27T13:43:25.849Z,27.90
2018-03-27T13:45:53.290Z,28.33
2018-03-27T13:48:20.720Z,24.23
2018-03-27T13:50:48.146Z,27.67
2018-03-27T13:53:15.574Z,30.80
2018-03-27T13:55:43.001Z,41.23
2018-03-27T13:58:10.425Z,40.07
2018-03-27T14:00:37.835Z,46.13
2018-03-27T14:03:05.261Z,49.40
2018-03-27T14:05:32.672Z,41.10
2018-03-27T14:08:00.102Z,26.67
2018-03-27T14:10:27.505Z,21.73
2018-03-27T14:12:54.959Z,27.50
2018-03-27T14:15:22.403Z,41.33
2018-03-27T14:17:49.868Z,37.90
2018-03-27T14:20:17.285Z,39.87
2018-03-27T14:22:44.715Z,39.03
2018-03-27T14:25:12.123Z,38.00
2018-03-27T14:27:39.537Z,42.10
2018-03-27T14:30:06.941Z,42.73
2018-03-27T14:32:34.370Z,34.83
2018-03-27T14:35:01.779Z,29.77
2018-03-27T14:37:29.204Z,33.77
2018-03-27T14:39:56.610Z,35.63
2018-03-27T14:42:24.030Z,34.87
2018-03-27T14:44:51.463Z,34.70
2018-03-27T14:47:18.870Z,44.47
2018-03-27T14:49:46.299Z,37.87
2018-03-27T14:52:13.699Z,38.70
2018-03-27T14:54:41.121Z,36.27
2018-03-27T14:57:08.533Z,37.67
2018-03-27T14:59:35.945Z,41.70
2018-03-27T15:02:03.362Z,38.07
2018-03-27T15:04:30.797Z,39.93
2018-03-27T15:06:58.262Z,37.20
2018-03-27T15:09:25.774Z,38.97
2018-03-27T15:11:53.236Z,37.87
2018-03-27T15:14:20.722Z,38.30
2018-03-27T15:16:48.642Z,41.77
2018-03-27T15:19:16.070Z,42.73
2018-03-27T15:21:43.493Z,40.97
2018-03-27T15:24:10.906Z,38.70
2018-03-27T15:26:38.344Z,43.00
2018-03-27T15:29:05.750Z,42.03
2018-03-27T15:31:33.191Z,38.77
2018-03-27T15:34:00.622Z,38.37
2018-03-27T15:36:28.085Z,37.80
2018-03-27T15:38:55.510Z,37.70
2018-03-27T15:41:22.950Z,37.13
2018-03-27T15:43:50.419Z,39.10
2018-03-27T15:46:17.853Z,40.37
2018-03-27T15:48:45.361Z,40.43
2018-03-27T15:51:12.795Z,39.77
2018-03-27T15:53:40.197Z,40.90
2018-03-27T15:56:07.629Z,40.10
2018-03-27T15:58:35.024Z,41.50
2018-03-27T16:01:02.456Z,38.73
2018-03-27T16:03:29.880Z,40.67
2018-03-27T16:05:57.313Z,40.20
2018-03-27T16:08:24.718Z,40.83
2018-03-27T16:10:52.125Z,39.37
2018-03-27T16:13:19.567Z,41.13
2018-03-27T16:15:46.945Z,42.77
2018-03-27T16:18:14.418Z,38.30
2018-03-27T16:20:41.882Z,40.60
2018-03-27T16:23:09.243Z,39.03
2018-03-27T16:25:36.649Z,37.07
2018-03-27T16:28:04.078Z,38.60
2018-03-27T16:30:31.492Z,36.90
2018-03-27T16:32:58.911Z,39.63
2018-03-27T16:35:26.324Z,38.03
2018-03-27T16:37:53.794Z,36.50
2018-03-27T16:40:21.166Z,41.87
2018-03-27T16:42:48.644Z,35.57
2018-03-27T16:45:16.070Z,38.47
2018-03-27T16:47:43.497Z,40.80
2018-03-27T16:50:10.914Z,56.67
2018-03-27T16:52:38.348Z,49.03
2018-03-27T16:55:05.762Z,28.17
2018-03-27T16:57:33.180Z,31.97
2018-03-27T17:00:00.634Z,28.27
2018-03-27T17:02:28.099Z,30.17
2018-03-27T17:04:55.569Z,27.27
2018-03-27T17:07:23.064Z,24.77
2018-03-27T17:09:58.438Z,24.53
2018-03-27T17:12:25.894Z,26.03
2018-03-27T17:15:06.864Z,31.80
2018-03-27T17:17:34.316Z,23.20
2018-03-27T17:20:01.734Z,23.13
2018-03-27T17:22:29.148Z,22.63
2018-03-27T17:24:56.627Z,22.63
2018-03-27T17:27:24.034Z,23.87
2018-03-27T17:29:51.464Z,22.60
2018-03-27T17:32:18.867Z,23.90
2018-03-27T17:34:46.302Z,24.13
2018-03-27T17:37:13.781Z,23.57
2018-03-27T17:39:41.134Z,28.23
2018-03-27T17:42:08.560Z,25.60
2018-03-27T17:44:36.452Z,23.60
2018-03-27T17:47:03.858Z,24.70
2018-03-27T17:49:31.453Z,25.83
2018-03-27T17:51:58.911Z,22.27
2018-03-27T17:54:26.364Z,24.67
2018-03-27T17:56:53.845Z,22.97
2018-03-27T17:59:21.290Z,25.23
2018-03-27T18:01:48.790Z,25.57
2018-03-27T18:04:16.222Z,25.10
2018-03-27T18:06:43.702Z,23.20
2018-03-27T18:09:11.129Z,25.50
2018-03-27T18:11:38.561Z,24.03
2018-03-27T18:14:05.969Z,24.43
2018-03-27T18:16:33.395Z,22.47
2018-03-27T18:19:00.797Z,22.40
2018-03-27T18:21:28.254Z,23.73
2018-03-27T18:23:55.682Z,24.97
2018-03-27T18:26:23.094Z,26.87
2018-03-27T18:28:50.505Z,25.73
2018-03-27T18:31:17.953Z,25.47
2018-03-27T18:33:45.357Z,22.97
2018-03-27T18:36:12.755Z,22.70
2018-03-27T18:38:40.181Z,25.20
2018-03-27T18:41:07.598Z,23.73
2018-03-27T18:43:35.018Z,26.33
2018-03-27T18:46:02.432Z,23.80
2018-03-27T18:48:29.845Z,22.83
2018-03-27T18:50:57.292Z,29.67
2018-03-27T18:53:24.693Z,26.13
2018-03-27T18:55:52.090Z,27.43
2018-03-27T18:58:19.507Z,27.10
2018-03-27T19:00:46.906Z,26.00
2018-03-27T19:03:14.609Z,30.90
2018-03-27T19:05:42.013Z,26.13
2018-03-27T19:08:09.425Z,27.77
2018-03-27T19:10:36.845Z,27.37
2018-03-27T19:13:04.291Z,26.73
2018-03-27T19:15:31.727Z,32.43
2018-03-27T19:17:59.251Z,28.23
2018-03-27T19:20:26.757Z,30.47
2018-03-27T19:22:54.295Z,29.33
2018-03-27T19:25:22.172Z,30.87
2018-03-27T19:27:50.359Z,32.30
2018-03-27T19:30:17.988Z,32.17
2018-03-27T19:32:45.426Z,33.77
2018-03-27T19:35:12.829Z,37.20
2018-03-27T19:37:40.526Z,33.73
2018-03-27T19:40:07.929Z,32.20
2018-03-27T19:42:35.351Z,34.07
2018-03-27T19:45:02.765Z,35.57
2018-03-27T19:47:30.169Z,34.53
2018-03-27T19:49:57.597Z,38.60
2018-03-27T19:52:25.109Z,37.10
2018-03-27T19:54:52.492Z,37.90
2018-03-27T19:57:19.977Z,40.90
2018-03-27T19:59:47.506Z,42.03
2018-03-27T20:02:14.985Z,41.93
2018-03-27T20:04:42.381Z,40.40
2018-03-27T20:07:09.796Z,45.33
2018-03-27T20:09:37.212Z,42.23
2018-03-27T20:12:04.769Z,42.07
2018-03-27T20:14:32.173Z,45.47
2018-03-27T20:16:59.615Z,45.60
2018-03-27T20:19:27.046Z,43.23
2018-03-27T20:21:54.502Z,44.47
2018-03-27T20:24:22.026Z,51.80
2018-03-27T20:26:49.831Z,44.50
2018-03-27T20:29:17.233Z,50.03
2018-03-27T20:31:44.655Z,47.20
2018-03-27T20:34:12.072Z,46.90
2018-03-27T20:36:39.493Z,50.63
2018-03-27T20:39:06.898Z,43.17
2018-03-27T20:41:34.313Z,42.97
2018-03-27T20:44:01.738Z,48.33
2018-03-27T20:46:29.272Z,46.97
2018-03-27T20:48:56.783Z,51.30
2018-03-27T20:51:24.210Z,52.40
2018-03-27T20:53:51.717Z,48.83
2018-03-27T20:56:20.220Z,50.30
2018-03-27T20:58:47.828Z,48.33
2018-03-27T21:01:15.226Z,44.03
2018-03-27T21:03:42.699Z,49.93
2018-03-27T21:06:10.077Z,47.73
2018-03-27T21:08:37.622Z,52.40
2018-03-27T21:11:05.110Z,52.60
2018-03-27T21:13:32.509Z,47.53
2018-03-27T21:16:00.095Z,49.33
2018-03-27T21:18:27.604Z,45.03
2018-03-27T21:20:55.181Z,44.97
2018-03-27T21:23:22.919Z,42.83
2018-03-27T21:25:50.415Z,48.53
2018-03-27T21:28:17.838Z,48.10
2018-03-27T21:30:45.402Z,48.07
2018-03-27T21:33:12.811Z,48.97
2018-03-27T21:35:40.235Z,45.10
2018-03-27T21:38:07.674Z,50.23
2018-03-27T21:40:35.104Z,60.13
2018-03-27T21:43:02.538Z,55.07
2018-03-27T21:45:30.283Z,65.53
2018-03-27T21:47:57.782Z,52.70
2018-03-27T21:50:25.250Z,61.50
2018-03-27T21:52:52.825Z,61.90
2018-03-27T21:55:20.381Z,63.33
2018-03-27T21:57:47.893Z,64.13
2018-03-27T22:00:15.314Z,60.67
2018-03-27T22:02:42.785Z,62.57
2018-03-27T22:05:10.190Z,62.60
2018-03-27T22:07:37.620Z,65.83
2018-03-27T22:10:05.210Z,68.57
2018-03-27T22:12:32.618Z,60.40
2018-03-27T22:15:00.075Z,58.00
2018-03-27T22:17:27.609Z,56.37
2018-03-27T22:19:55.071Z,55.60
2018-03-27T22:22:22.730Z,51.87
2018-03-27T22:24:50.188Z,62.67
2018-03-27T22:27:17.608Z,61.47
2018-03-27T22:29:45.054Z,66.70
2018-03-27T22:32:12.500Z,56.03
2018-03-27T22:34:39.978Z,61.60
2018-03-27T22:37:07.331Z,42.83
2018-03-27T22:39:34.725Z,49.83
2018-03-27T22:42:02.155Z,41.80
2018-03-27T22:44:29.580Z,38.23
2018-03-27T22:46:56.998Z,40.07
2018-03-27T22:49:24.497Z,34.47
2018-03-27T22:51:51.986Z,32.57
2018-03-27T22:54:19.428Z,34.77
2018-03-27T22:56:46.839Z,31.63
2018-03-27T22:59:14.384Z,27.97
2018-03-27T23:01:41.777Z,31.10
2018-03-27T23:04:09.250Z,29.97
2018-03-27T23:06:36.682Z,31.50
2018-03-27T23:09:04.106Z,34.00
2018-03-27T23:11:31.519Z,27.77
2018-03-27T23:13:58.962Z,30.10
2018-03-27T23:16:26.450Z,28.97
2018-03-27T23:18:53.955Z,28.27
2018-03-27T23:21:21.536Z,28.70
2018-03-27T23:23:48.975Z,24.93
2018-03-27T23:26:16.375Z,27.17
2018-03-27T23:28:43.807Z,22.53
2018-03-27T23:31:11.251Z,24.27
2018-03-27T23:33:38.658Z,25.50
2018-03-27T23:36:06.091Z,24.20
2018-03-27T23:38:33.494Z,25.03
2018-03-27T23:41:00.909Z,26.90
2018-03-27T23:43:28.369Z,22.70
2018-03-27T23:45:55.898Z,22.40
2018-03-27T23:48:23.369Z,21.30
2018-03-27T23:50:50.909Z,21.07
2018-03-27T23:53:18.356Z,22.60
2018-03-27T23:55:45.776Z,21.93
2018-03-27T23:58:13.183Z,23.07
